Time;durP1;ratioP1;P1;durP2;ratioP2;P2;SDS_P1;SDS_P2;PMS_P1;PMS_P2;Temp;Humidity;BMP_temperature;BMP_pressure;BME280_temperature;BME280_humidity;BME280_pressure;Samples;Min_cycle;Max_cycle;Signal;HPM_P1;HPM_P2
2022/11/22 00:02:02;;;;;;;29.40;14.45;;;;;;;-2.86;100.00;99651.25;7390607;19;20150;-55
2022/11/22 00:04:31;;;;;;;32.28;15.55;;;;;;;-2.87;100.00;99644.47;7388471;19;20162;-59
2022/11/22 00:07:01;;;;;;;32.40;15.23;;;;;;;-2.85;100.00;99642.94;7390070;19;20162;-59
2022/11/22 00:09:33;;;;;;;33.92;15.38;;;;;;;-2.86;100.00;99645.34;7387907;19;20222;-59
2022/11/22 00:12:02;;;;;;;31.65;15.85;;;;;;;-2.87;100.00;99636.88;7387625;19;20511;-57
2022/11/22 00:14:32;;;;;;;36.40;15.23;;;;;;;-2.79;100.00;99634.06;7389009;19;20170;-59
2022/11/22 00:17:01;;;;;;;33.75;14.65;;;;;;;-2.81;100.00;99636.50;7388813;19;20134;-60
2022/11/22 00:19:31;;;;;;;32.85;15.02;;;;;;;-2.81;100.00;99640.66;7389391;19;20138;-56
2022/11/22 00:22:00;;;;;;;33.53;15.52;;;;;;;-2.78;100.00;99648.47;7389218;19;20127;-60
2022/11/22 00:24:33;;;;;;;34.03;14.75;;;;;;;-2.79;100.00;99662.72;7388530;19;20178;-58
2022/11/22 00:27:02;;;;;;;35.40;15.32;;;;;;;-2.77;100.00;99665.38;7391815;19;20158;-59
2022/11/22 00:29:32;;;;;;;28.67;13.98;;;;;;;-2.70;100.00;99670.13;7394362;19;20190;-58
2022/11/22 00:32:01;;;;;;;34.35;15.88;;;;;;;-2.68;100.00;99673.66;7388935;19;20127;-59
2022/11/22 00:34:31;;;;;;;37.53;16.38;;;;;;;-2.68;100.00;99666.09;7388773;19;20198;-59
2022/11/22 00:37:01;;;;;;;30.02;14.65;;;;;;;-2.72;100.00;99654.88;7387977;19;20127;-60
2022/11/22 00:39:33;;;;;;;35.03;15.10;;;;;;;-2.73;100.00;99657.25;7389437;19;20170;-58
2022/11/22 00:42:02;;;;;;;40.75;14.50;;;;;;;-2.76;100.00;99650.31;7387690;19;20154;-58
2022/11/22 00:44:31;;;;;;;33.17;14.82;;;;;;;-2.63;100.00;99654.69;7388853;19;20163;-58
2022/11/22 00:47:01;;;;;;;33.80;14.93;;;;;;;-2.64;100.00;99652.94;7388742;19;20135;-57
2022/11/22 00:49:31;;;;;;;32.92;15.30;;;;;;;-2.59;100.00;99655.81;7389468;19;20123;-61
2022/11/22 00:52:00;;;;;;;34.55;16.45;;;;;;;-2.60;100.00;99647.34;7387709;19;20134;-59
2022/11/22 00:54:33;;;;;;;35.15;15.68;;;;;;;-2.58;100.00;99640.78;7388369;19;20163;-61
2022/11/22 00:57:02;;;;;;;39.97;18.17;;;;;;;-2.60;100.00;99643.94;7388273;19;20139;-59
2022/11/22 00:59:32;;;;;;;33.67;14.85;;;;;;;-2.60;100.00;99642.28;7389601;19;20153;-57
2022/11/22 01:02:01;;;;;;;33.30;15.35;;;;;;;-2.59;100.00;99640.66;7387905;19;20171;-57
2022/11/22 01:04:31;;;;;;;35.85;16.58;;;;;;;-2.61;100.00;99648.09;7388508;19;20173;-62
2022/11/22 01:07:00;;;;;;;33.38;15.23;;;;;;;-2.59;100.00;99649.13;7388459;19;20127;-56
2022/11/22 01:09:32;;;;;;;36.35;15.75;;;;;;;-2.55;100.00;99647.72;7390042;19;20138;-60
2022/11/22 01:12:02;;;;;;;36.25;17.00;;;;;;;-2.51;100.00;99649.69;7389367;19;20143;-58
2022/11/22 01:14:31;;;;;;;37.53;16.30;;;;;;;-2.49;100.00;99643.13;7389092;19;20167;-59
2022/11/22 01:17:01;;;;;;;39.58;17.27;;;;;;;-2.49;100.00;99654.88;7387308;19;20191;-59
2022/11/22 01:19:30;;;;;;;35.70;15.63;;;;;;;-2.59;100.00;99638.13;7389530;19;20182;-55
2022/11/22 01:22:00;;;;;;;37.75;15.85;;;;;;;-2.60;100.00;99638.91;7397866;19;20199;-58
2022/11/22 01:24:32;;;;;;;38.33;15.55;;;;;;;-2.55;100.00;99627.50;7399779;19;20170;-58
2022/11/22 01:27:02;;;;;;;41.25;17.40;;;;;;;-2.47;100.00;99630.59;7397182;19;20510;-59
2022/11/22 01:29:31;;;;;;;36.55;15.90;;;;;;;-2.50;100.00;99612.69;7397424;19;20123;-58
2022/11/22 01:32:01;;;;;;;34.97;15.65;;;;;;;-2.47;100.00;99608.75;7396187;19;20123;-59
2022/11/22 01:34:30;;;;;;;39.97;17.00;;;;;;;-2.49;100.00;99614.44;7395493;19;20169;-56
2022/11/22 01:37:00;;;;;;;35.80;16.60;;;;;;;-2.50;100.00;99606.00;7399528;19;20166;-57
2022/11/22 01:39:32;;;;;;;38.05;17.45;;;;;;;-2.47;100.00;99607.84;7397326;19;20155;-55
2022/11/22 01:42:02;;;;;;;45.05;17.25;;;;;;;-2.47;100.00;99611.28;7395312;19;20162;-54
2022/11/22 01:44:33;;;;;;;39.35;16.88;;;;;;;-2.47;100.00;99610.38;7394789;19;20194;-53
2022/11/22 01:47:06;;;;;;;38.45;16.75;;;;;;;-2.47;100.00;99612.91;7395972;19;20127;-58
2022/11/22 01:49:40;;;;;;;42.03;18.15;;;;;;;-2.44;100.00;99615.66;7396776;19;20601;-59
2022/11/22 01:52:13;;;;;;;37.83;16.35;;;;;;;-2.45;100.00;99607.19;7395100;19;20201;-59
2022/11/22 01:54:47;;;;;;;42.70;17.02;;;;;;;-2.47;100.00;99613.78;7394611;19;20716;-57
2022/11/22 01:57:19;;;;;;;37.55;16.50;;;;;;;-2.50;100.00;99610.16;7394887;19;20193;-58
2022/11/22 01:59:51;;;;;;;41.15;17.50;;;;;;;-2.51;100.00;99608.41;7396722;19;20131;-61
2022/11/22 02:02:20;;;;;;;40.58;16.98;;;;;;;-2.44;100.00;99605.56;7393799;19;20217;-59
2022/11/22 02:04:50;;;;;;;36.35;16.55;;;;;;;-2.41;100.00;99605.78;7396861;19;20151;-56
2022/11/22 02:07:26;;;;;;;36.20;17.33;;;;;;;-2.42;100.00;99614.13;7394850;19;20194;-56
2022/11/22 02:09:59;;;;;;;44.25;19.73;;;;;;;-2.43;100.00;99616.56;7397785;19;20131;-59
2022/11/22 02:12:30;;;;;;;40.00;16.17;;;;;;;-2.39;100.00;99611.84;7391620;19;20198;-60
2022/11/22 02:15:00;;;;;;;40.25;17.50;;;;;;;-2.34;100.00;99608.03;7390232;19;20147;-58
2022/11/22 02:17:30;;;;;;;41.15;16.90;;;;;;;-2.32;100.00;99606.50;7394030;19;20218;-59
2022/11/22 02:19:59;;;;;;;38.13;17.08;;;;;;;-2.36;100.00;99599.44;7399477;19;20150;-58
2022/11/22 02:22:42;;;;;;;40.03;17.75;;;;;;;-2.46;100.00;99602.06;7393673;19;20660;-58
2022/11/22 02:25:18;;;;;;;48.05;19.25;;;;;;;-2.46;100.00;99591.94;7396463;19;20127;-56
2022/11/22 02:27:50;;;;;;;40.50;17.90;;;;;;;-2.41;100.00;99572.06;7394370;19;20217;-59
2022/11/22 02:30:20;;;;;;;36.42;17.15;;;;;;;-2.40;100.00;99577.25;7396169;19;20131;-60
2022/11/22 02:32:50;;;;;;;39.42;17.58;;;;;;;-2.44;100.00;99565.16;7392355;19;20198;-58
2022/11/22 02:35:21;;;;;;;39.65;18.20;;;;;;;-2.41;100.00;99559.44;7395989;19;20123;-57
2022/11/22 02:37:53;;;;;;;46.10;18.20;;;;;;;-2.42;100.00;99562.75;7394362;19;20194;-54
2022/11/22 02:40:23;;;;;;;43.90;18.88;;;;;;;-2.40;100.00;99562.09;7395826;19;20127;-58
2022/11/22 02:42:58;;;;;;;39.90;16.98;;;;;;;-2.40;100.00;99557.03;7392531;19;20672;-58
2022/11/22 02:45:27;;;;;;;40.08;17.00;;;;;;;-2.42;100.00;99555.16;7395489;19;20126;-57
2022/11/22 02:48:06;;;;;;;42.97;18.30;;;;;;;-2.42;100.00;99557.69;7392353;19;20193;-55
2022/11/22 02:50:36;;;;;;;42.40;18.60;;;;;;;-2.39;100.00;99557.91;7395868;19;20131;-58
2022/11/22 02:53:05;;;;;;;39.72;17.52;;;;;;;-2.40;100.00;99557.03;7392000;19;20194;-59
2022/11/22 02:55:35;;;;;;;42.45;17.10;;;;;;;-2.37;100.00;99542.09;7395223;19;20138;-58
2022/11/22 02:58:07;;;;;;;42.72;18.60;;;;;;;-2.33;100.00;99533.09;7392502;19;20222;-52
2022/11/22 03:00:38;;;;;;;40.78;18.67;;;;;;;-2.31;100.00;99532.44;7394962;19;20127;-57
2022/11/22 03:03:08;;;;;;;41.67;17.75;;;;;;;-2.32;100.00;99525.63;7391837;19;20198;-57
2022/11/22 03:05:37;;;;;;;45.95;18.98;;;;;;;-2.28;100.00;99519.16;7395155;19;20127;-59
2022/11/22 03:08:07;;;;;;;39.05;16.98;;;;;;;-2.37;100.00;99521.88;7391956;19;20661;-60
2022/11/22 03:10:36;;;;;;;39.33;17.40;;;;;;;-2.40;100.00;99526.72;7394446;19;20135;-56
2022/11/22 03:13:09;;;;;;;39.05;16.52;;;;;;;-2.37;100.00;99526.06;7391324;19;20202;-57
2022/11/22 03:15:39;;;;;;;45.03;18.27;;;;;;;-2.32;100.00;99523.09;7398070;19;20138;-58
2022/11/22 03:18:08;;;;;;;42.17;18.45;;;;;;;-2.32;100.00;99507.94;7392495;19;20194;-56
2022/11/22 03:20:38;;;;;;;38.33;17.27;;;;;;;-2.33;100.00;99502.75;7394686;19;20127;-59
2022/11/22 03:23:07;;;;;;;38.97;17.55;;;;;;;-2.32;100.00;99492.78;7391265;19;20230;-58
2022/11/22 03:25:38;;;;;;;43.05;19.55;;;;;;;-2.33;100.00;99492.66;7398970;19;20139;-59
2022/11/22 03:28:10;;;;;;;43.30;17.45;;;;;;;-2.29;100.00;99503.84;7394172;19;20559;-59
2022/11/22 03:30:44;;;;;;;37.30;16.45;;;;;;;-2.31;100.00;99511.31;7394219;19;20138;-53
2022/11/22 03:33:13;;;;;;;42.35;16.80;;;;;;;-2.18;100.00;99508.06;7390720;19;20197;-58
2022/11/22 03:35:43;;;;;;;162.25;57.03;;;;;;;-0.36;100.00;99482.41;7393613;19;20131;-56
2022/11/22 03:38:12;;;;;;;43.60;19.73;;;;;;;-0.99;100.00;99497.75;7391263;19;20194;-55
2022/11/22 03:40:42;;;;;;;67.97;29.52;;;;;;;-1.01;100.00;99498.41;7394111;19;20135;-55
2022/11/22 03:43:14;;;;;;;38.53;18.55;;;;;;;-0.96;100.00;99505.53;7387937;19;20206;-56
2022/11/22 03:45:46;;;;;;;39.50;17.73;;;;;;;-0.92;100.00;99503.22;7393182;19;20134;-60
2022/11/22 03:48:16;;;;;;;46.33;21.70;;;;;;;-0.77;100.00;99509.31;7390824;19;20187;-54
2022/11/22 03:50:45;;;;;;;35.35;16.45;;;;;;;-1.11;100.00;99527.28;7396594;19;20596;-59
2022/11/22 03:53:16;;;;;;;34.83;16.17;;;;;;;-1.36;100.00;99520.53;7390394;19;20198;-57
2022/11/22 03:55:45;;;;;;;41.28;16.50;;;;;;;-1.38;100.00;99522.09;7393789;19;20151;-57
2022/11/22 03:58:17;;;;;;;39.22;17.20;;;;;;;-1.52;100.00;99527.06;7390228;19;20554;-59
2022/11/22 04:00:47;;;;;;;55.13;24.33;;;;;;;-1.60;100.00;99538.28;7392958;19;20159;-60
2022/11/22 04:03:16;;;;;;;39.88;16.10;;;;;;;-1.64;100.00;99551.50;7390062;19;20194;-58
2022/11/22 04:05:46;;;;;;;39.75;18.17;;;;;;;-1.57;100.00;99555.31;7392779;19;20598;-56
2022/11/22 04:08:16;;;;;;;39.15;16.38;;;;;;;-1.61;100.00;99539.06;7390198;19;20197;-57
2022/11/22 04:10:45;;;;;;;35.15;17.70;;;;;;;-1.60;100.00;99535.75;7392275;19;20131;-58
2022/11/22 04:13:17;;;;;;;42.13;19.25;;;;;;;-1.77;100.00;99532.03;7389839;19;20853;-57
2022/11/22 04:15:44;;;;;;;39.63;17.55;;;;;;;-1.91;100.00;99538.63;7395585;19;20787;-57
2022/11/22 04:18:15;;;;;;;38.72;16.55;;;;;;;-1.58;100.00;99538.41;7390581;19;20190;-57
2022/11/22 04:23:29;;;;;;;39.42;17.75;;;;;;;-1.64;100.00;99538.84;7388789;19;20705;-62
2022/11/22 04:26:00;;;;;;;39.33;19.15;;;;;;;-1.68;100.00;99550.41;7392511;19;20131;-60
2022/11/22 04:28:32;;;;;;;42.70;18.17;;;;;;;-1.70;100.00;99549.41;7390893;19;20190;-58
2022/11/22 04:34:03;;;;;;;37.42;17.42;;;;;;;-1.64;100.00;99523.69;7389058;19;20205;-57
2022/11/22 04:36:33;;;;;;;38.92;17.40;;;;;;;-1.58;100.00;99536.75;7392036;19;20151;-57
2022/11/22 04:39:02;;;;;;;40.10;19.23;;;;;;;-1.53;100.00;99532.88;7386968;19;20215;-54
2022/11/22 04:41:31;;;;;;;39.40;17.67;;;;;;;-1.52;100.00;99522.00;7391020;19;20131;-58
2022/11/22 04:46:45;;;;;;;38.85;18.67;;;;;;;-1.38;100.00;99533.06;7387520;19;20158;-57
2022/11/22 04:49:14;;;;;;;43.22;19.58;;;;;;;-1.16;100.00;99531.16;7390556;19;20624;-57
2022/11/22 04:54:27;;;;;;;42.13;19.15;;;;;;;-1.14;100.00;99527.06;7387890;19;20194;-58
2022/11/22 04:56:56;;;;;;;48.33;21.55;;;;;;;-0.77;100.00;99513.50;7389274;19;20123;-57
2022/11/22 04:59:28;;;;;;;42.40;18.92;;;;;;;-0.78;100.00;99517.69;7389955;19;20155;-58
2022/11/22 05:01:58;;;;;;;41.17;18.48;;;;;;;-0.96;100.00;99532.53;7388635;19;20192;-58
2022/11/22 05:04:28;;;;;;;39.25;16.95;;;;;;;-1.20;100.00;99521.59;7388568;19;20158;-61
2022/11/22 05:06:58;;;;;;;34.78;16.70;;;;;;;-1.28;100.00;99524.47;7385733;19;20135;-57
2022/11/22 05:09:27;;;;;;;41.60;18.73;;;;;;;-1.15;100.00;99525.31;7390087;19;20143;-60
2022/11/22 05:11:57;;;;;;;38.20;17.55;;;;;;;-1.24;100.00;99516.31;7388683;19;20173;-55
2022/11/22 05:14:30;;;;;;;39.22;17.60;;;;;;;-1.34;100.00;99524.03;7388478;19;20163;-57
2022/11/22 05:16:59;;;;;;;39.17;17.95;;;;;;;-1.46;100.00;99529.13;7388146;19;20162;-58
2022/11/22 05:19:29;;;;;;;36.33;17.70;;;;;;;-1.40;100.00;99533.72;7389042;19;20139;-57
2022/11/22 05:21:59;;;;;;;43.70;19.27;;;;;;;-1.51;100.00;99528.81;7388484;19;20139;-54
2022/11/22 05:24:26;;;;;;;38.65;16.80;;;;;;;-1.49;100.00;99528.91;7390641;19;20189;-55
2022/11/22 05:26:55;;;;;;;40.70;18.98;;;;;;;-1.48;100.00;99525.63;7388593;19;20135;-58
2022/11/22 05:29:24;;;;;;;38.08;17.17;;;;;;;-1.51;100.00;99521.22;7390545;19;20131;-60
2022/11/22 05:31:57;;;;;;;39.42;17.88;;;;;;;-1.47;100.00;99522.31;7384832;19;20127;-59
2022/11/22 05:34:27;;;;;;;39.03;17.90;;;;;;;-1.49;100.00;99523.84;7388406;19;20173;-60
2022/11/22 05:36:56;;;;;;;36.70;17.73;;;;;;;-1.54;100.00;99522.66;7387326;19;20131;-58
2022/11/22 05:39:26;;;;;;;41.03;18.67;;;;;;;-1.50;100.00;99522.97;7389302;19;20127;-57
2022/11/22 05:41:58;;;;;;;49.47;20.25;;;;;;;-1.46;100.00;99513.06;7386885;19;20628;-57
2022/11/22 05:44:28;;;;;;;45.97;20.35;;;;;;;-1.44;100.00;99509.00;7386935;19;20186;-57
2022/11/22 05:47:00;;;;;;;40.38;18.65;;;;;;;-1.39;100.00;99505.16;7386448;19;20123;-58
2022/11/22 05:49:30;;;;;;;42.53;19.13;;;;;;;-1.40;100.00;99503.38;7388362;19;20147;-59
2022/11/22 05:52:01;;;;;;;41.03;18.08;;;;;;;-1.37;100.00;99513.72;7387360;19;20183;-61
2022/11/22 05:54:30;;;;;;;45.05;19.42;;;;;;;-1.40;100.00;99513.50;7386936;19;20617;-56
2022/11/22 05:57:00;;;;;;;44.80;19.15;;;;;;;-1.39;100.00;99506.00;7387519;19;20131;-55
2022/11/22 05:59:29;;;;;;;42.15;18.77;;;;;;;-1.40;100.00;99508.44;7388603;19;20131;-59
2022/11/22 06:02:02;;;;;;;42.17;18.90;;;;;;;-1.42;100.00;99510.88;7387184;19;20131;-57
2022/11/22 06:04:31;;;;;;;42.58;18.85;;;;;;;-1.33;100.00;99514.81;7387195;19;20173;-60
2022/11/22 06:07:01;;;;;;;40.67;19.15;;;;;;;-1.33;100.00;99514.81;7391087;19;20131;-58
2022/11/22 06:09:38;;;;;;;43.10;20.10;;;;;;;-1.31;100.00;99511.63;7395629;19;20142;-60
2022/11/22 06:12:08;;;;;;;41.45;20.70;;;;;;;-1.31;100.00;99509.09;7395303;19;20202;-59
2022/11/22 06:14:37;;;;;;;41.50;18.02;;;;;;;-1.30;100.00;99504.88;7393361;19;20162;-54
2022/11/22 06:17:14;;;;;;;39.65;19.67;;;;;;;-1.27;100.00;99500.91;7395174;19;20640;-59
2022/11/22 06:19:44;;;;;;;38.30;19.33;;;;;;;-1.28;100.00;99499.16;7395098;19;20123;-59
2022/11/22 06:22:13;;;;;;;40.78;19.40;;;;;;;-1.26;100.00;99502.69;7393428;19;20683;-60
2022/11/22 06:24:43;;;;;;;40.78;19.60;;;;;;;-1.27;100.00;99513.56;7393103;19;20194;-57
2022/11/22 06:27:13;;;;;;;44.95;19.30;;;;;;;-1.23;100.00;99502.88;7394397;19;20190;-59
2022/11/22 06:29:42;;;;;;;42.30;19.08;;;;;;;-1.21;100.00;99510.59;7395109;19;20218;-58
2022/11/22 06:32:15;;;;;;;53.60;22.67;;;;;;;-1.19;100.00;99505.66;7393022;19;20615;-57
2022/11/22 06:34:44;;;;;;;41.28;19.42;;;;;;;-1.14;100.00;99502.63;7392924;19;20163;-61
2022/11/22 06:37:16;;;;;;;41.53;19.45;;;;;;;-1.11;100.00;99507.03;7392442;19;20218;-62
2022/11/22 06:39:46;;;;;;;43.65;20.25;;;;;;;-1.10;100.00;99504.63;7394554;19;20152;-58
2022/11/22 06:42:15;;;;;;;44.75;20.23;;;;;;;-1.04;100.00;99504.16;7390237;19;20186;-58
2022/11/22 06:44:44;;;;;;;42.28;20.23;;;;;;;-1.05;100.00;99504.03;7392661;19;20166;-55
2022/11/22 06:47:17;;;;;;;44.13;19.83;;;;;;;-1.06;100.00;99498.09;7392893;19;20221;-56
2022/11/22 06:49:47;;;;;;;38.75;19.63;;;;;;;-1.11;100.00;99497.81;7393932;19;20171;-59
2022/11/22 06:52:16;;;;;;;41.92;19.88;;;;;;;-1.06;100.00;99493.03;7392284;19;20649;-59
2022/11/22 06:54:46;;;;;;;42.55;20.23;;;;;;;-1.07;100.00;99487.88;7392125;19;20166;-59
2022/11/22 06:57:16;;;;;;;41.53;19.80;;;;;;;-1.03;100.00;99488.16;7392736;19;20186;-56
2022/11/22 06:59:46;;;;;;;151.48;62.65;;;;;;;0.46;100.00;99462.97;7394050;19;20931;-59
2022/11/22 07:02:18;;;;;;;41.50;20.67;;;;;;;0.49;100.00;99469.13;7391961;19;20194;-56
2022/11/22 07:04:48;;;;;;;48.28;21.27;;;;;;;0.36;100.00;99464.94;7391307;19;20186;-53
2022/11/22 07:07:37;;;;;;;51.92;24.17;;;;;;;-0.10;100.00;99469.66;7391197;19;20223;-56
2022/11/22 07:10:08;;;;;;;45.95;22.80;;;;;;;-0.31;100.00;99470.91;7394075;19;20143;-58
2022/11/22 07:12:37;;;;;;;45.78;20.70;;;;;;;-0.49;100.00;99480.75;7390476;19;20194;-58
2022/11/22 07:15:08;;;;;;;50.25;21.90;;;;;;;-0.55;100.00;99470.22;7394206;19;20162;-55
2022/11/22 07:17:41;;;;;;;40.90;19.60;;;;;;;-0.68;100.00;99477.00;7392034;19;20190;-57
2022/11/22 07:20:11;;;;;;;41.83;19.48;;;;;;;-0.82;100.00;99485.34;7394179;19;20139;-61
2022/11/22 07:22:41;;;;;;;47.42;21.42;;;;;;;-0.81;100.00;99482.03;7391766;19;20194;-59
2022/11/22 07:25:11;;;;;;;40.20;19.73;;;;;;;-0.94;100.00;99474.41;7393350;19;20131;-60
2022/11/22 07:27:40;;;;;;;42.88;19.30;;;;;;;-0.91;100.00;99467.00;7390367;19;20218;-55
2022/11/22 07:30:12;;;;;;;42.85;20.33;;;;;;;-0.98;100.00;99476.72;7393842;19;20500;-58
2022/11/22 07:32:48;;;;;;;40.95;20.00;;;;;;;-1.05;100.00;99472.00;7390135;19;20214;-58
2022/11/22 07:35:18;;;;;;;44.40;19.00;;;;;;;-1.03;100.00;99460.31;7392935;19;20130;-58
2022/11/22 07:37:48;;;;;;;39.22;18.83;;;;;;;-0.73;100.00;99450.47;7391873;19;20218;-58
2022/11/22 07:40:18;;;;;;;44.55;20.58;;;;;;;-0.77;100.00;99453.56;7393249;19;20155;-59
2022/11/22 07:42:47;;;;;;;49.40;20.00;;;;;;;-0.58;100.00;99444.66;7390524;19;20218;-58
2022/11/22 07:45:17;;;;;;;46.65;20.38;;;;;;;-0.72;100.00;99439.56;7392763;19;20131;-54
2022/11/22 07:47:49;;;;;;;41.50;20.42;;;;;;;-0.64;100.00;99442.63;7389287;19;20217;-57
2022/11/22 07:50:19;;;;;;;43.63;20.10;;;;;;;-0.74;100.00;99438.59;7393426;19;20127;-54
2022/11/22 07:52:56;;;;;;;46.00;19.98;;;;;;;-0.49;100.00;99440.19;7389190;19;20194;-53
2022/11/22 07:55:26;;;;;;;43.40;20.55;;;;;;;-0.63;100.00;99438.41;7392093;19;20138;-57
2022/11/22 07:57:56;;;;;;;42.08;20.08;;;;;;;-0.83;100.00;99443.03;7390259;19;20194;-58
2022/11/22 08:00:25;;;;;;;41.42;20.40;;;;;;;-0.94;100.00;99441.47;7391993;19;20142;-55
2022/11/22 08:02:59;;;;;;;52.72;21.23;;;;;;;-0.93;100.00;99446.63;7390335;19;20198;-55
2022/11/22 08:05:30;;;;;;;43.05;20.67;;;;;;;-0.93;100.00;99440.69;7391766;19;20214;-57
2022/11/22 08:07:59;;;;;;;40.85;19.92;;;;;;;-0.93;100.00;99446.63;7389403;19;20186;-55
2022/11/22 08:10:29;;;;;;;45.60;21.52;;;;;;;-0.96;100.00;99438.84;7393336;19;20457;-60
2022/11/22 08:13:01;;;;;;;42.58;19.67;;;;;;;-0.98;100.00;99441.25;7389010;19;20206;-53
2022/11/22 08:15:34;;;;;;;44.90;20.02;;;;;;;-0.99;100.00;99447.09;7390975;19;20155;-54
2022/11/22 08:18:06;;;;;;;48.85;20.35;;;;;;;-0.92;100.00;99457.63;7389320;19;20221;-58
2022/11/22 08:20:35;;;;;;;41.60;19.90;;;;;;;-0.98;100.00;99458.97;7392097;19;20722;-55
2022/11/22 08:23:05;;;;;;;44.97;19.65;;;;;;;-0.99;100.00;99456.34;7388507;19;20672;-54
2022/11/22 08:25:34;;;;;;;47.20;21.80;;;;;;;-0.88;100.00;99467.22;7391114;19;20147;-55
2022/11/22 08:28:04;;;;;;;43.83;20.92;;;;;;;-0.84;100.00;99464.09;7389876;19;20198;-56
2022/11/22 08:30:34;;;;;;;47.17;20.90;;;;;;;-0.88;100.00;99459.63;7390123;19;20127;-60
2022/11/22 08:33:06;;;;;;;50.60;22.35;;;;;;;-0.82;100.00;99470.16;7388663;19;20193;-58
2022/11/22 08:35:35;;;;;;;53.30;23.30;;;;;;;-0.82;100.00;99465.09;7390672;19;20155;-56
2022/11/22 08:38:05;;;;;;;47.92;20.65;;;;;;;-0.88;100.00;99474.81;7388059;19;20198;-51
2022/11/22 08:40:34;;;;;;;41.67;20.33;;;;;;;-0.94;100.00;99470.19;7390886;19;20566;-55
2022/11/22 08:43:09;;;;;;;44.47;20.50;;;;;;;-0.85;100.00;99467.41;7387734;19;20201;-53
2022/11/22 08:45:39;;;;;;;42.85;20.42;;;;;;;-0.83;100.00;99470.91;7394775;19;20155;-56
2022/11/22 08:48:11;;;;;;;51.78;23.00;;;;;;;-0.79;100.00;99474.50;7387195;19;20194;-60
2022/11/22 08:50:51;;;;;;;53.97;22.30;;;;;;;-0.89;100.00;99473.03;7390596;19;20589;-57
2022/11/22 08:53:22;;;;;;;46.80;22.83;;;;;;;-0.87;100.00;99474.03;7387092;19;20194;-55
2022/11/22 08:55:52;;;;;;;53.75;22.55;;;;;;;-0.86;100.00;99475.78;7390752;19;20685;-56
2022/11/22 08:58:21;;;;;;;52.80;21.70;;;;;;;-0.91;100.00;99480.53;7386090;19;20194;-57
2022/11/22 09:00:51;;;;;;;46.60;21.52;;;;;;;-0.83;100.00;99478.50;7390356;19;20479;-55
2022/11/22 09:03:23;;;;;;;47.63;21.00;;;;;;;-0.83;100.00;99473.44;7387242;19;20198;-53
2022/11/22 09:05:54;;;;;;;46.88;21.45;;;;;;;-0.79;100.00;99480.47;7389897;19;20150;-53
2022/11/22 09:08:43;;;;;;;50.15;20.67;;;;;;;-0.80;100.00;99486.31;7386917;19;20592;-52
2022/11/22 09:11:25;;;;;;;51.53;21.88;;;;;;;-0.76;100.00;99480.69;7390176;19;20694;-57
2022/11/22 09:13:55;;;;;;;53.38;23.27;;;;;;;-0.80;100.00;99490.50;7386405;19;20233;-56
2022/11/22 09:16:24;;;;;;;48.70;21.95;;;;;;;-0.82;100.00;99493.81;7390593;19;20131;-56
2022/11/22 09:18:56;;;;;;;48.05;21.83;;;;;;;-0.72;100.00;99496.97;7387769;19;20221;-57
2022/11/22 09:21:26;;;;;;;50.30;22.02;;;;;;;-0.62;100.00;99495.94;7393561;19;20852;-57
2022/11/22 09:23:55;;;;;;;44.92;21.77;;;;;;;-0.71;100.00;99498.72;7386935;19;20190;-59
2022/11/22 09:26:26;;;;;;;46.58;20.92;;;;;;;-0.71;100.00;99508.84;7390192;19;20130;-58
2022/11/22 09:28:58;;;;;;;49.60;21.88;;;;;;;-0.76;100.00;99506.03;7386187;19;20186;-54
2022/11/22 09:31:27;;;;;;;48.08;20.30;;;;;;;-0.79;100.00;99515.94;7393790;19;20127;-57
2022/11/22 09:34:00;;;;;;;49.88;21.73;;;;;;;-0.75;100.00;99507.78;7386714;19;20197;-54
2022/11/22 09:36:30;;;;;;;48.85;22.38;;;;;;;-0.74;100.00;99504.47;7389341;19;20501;-54
2022/11/22 09:38:59;;;;;;;51.60;21.88;;;;;;;-0.75;100.00;99514.50;7386862;19;20580;-55
2022/11/22 09:41:54;;;;;;;46.40;20.63;;;;;;;-0.68;100.00;99509.94;7391716;19;20158;-57
2022/11/22 09:44:30;;;;;;;43.45;19.90;;;;;;;-0.76;100.00;99523.75;7393252;19;20226;-56
2022/11/22 09:47:04;;;;;;;49.17;22.15;;;;;;;-0.66;100.00;99521.81;7394332;19;20189;-56
2022/11/22 09:49:45;;;;;;;49.70;21.70;;;;;;;-0.68;100.00;99521.72;7396093;19;20119;-59
2022/11/22 09:52:18;;;;;;;46.35;22.13;;;;;;;-0.69;100.00;99512.38;7394749;19;20205;-58
2022/11/22 09:54:50;;;;;;;49.97;21.48;;;;;;;-0.68;100.00;99511.59;7393464;19;20583;-59
2022/11/22 09:57:24;;;;;;;48.65;22.17;;;;;;;-0.68;100.00;99517.53;7394409;19;20233;-58
2022/11/22 09:59:59;;;;;;;49.90;21.85;;;;;;;-0.74;100.00;99514.59;7396850;19;20628;-55
2022/11/22 10:02:33;;;;;;;45.67;20.52;;;;;;;-0.72;100.00;99517.25;7393353;19;20194;-55
2022/11/22 10:05:24;;;;;;;51.40;23.40;;;;;;;-0.74;100.00;99519.66;7396546;19;20510;-58
2022/11/22 10:07:57;;;;;;;45.53;20.30;;;;;;;-0.68;100.00;99517.53;7392239;19;20295;-55
2022/11/22 10:10:29;;;;;;;48.08;21.27;;;;;;;-0.62;100.00;99514.53;7396041;19;20127;-59
2022/11/22 10:13:02;;;;;;;50.92;22.77;;;;;;;-0.58;100.00;99519.03;7394506;19;20198;-57
2022/11/22 10:15:37;;;;;;;55.97;23.73;;;;;;;-0.58;100.00;99518.13;7395806;19;20127;-60
2022/11/22 10:18:16;;;;;;;45.25;21.08;;;;;;;-0.60;100.00;99524.78;7392392;19;20217;-57
2022/11/22 10:20:48;;;;;;;50.05;23.95;;;;;;;-0.51;100.00;99524.50;7395331;19;20143;-56
2022/11/22 10:23:20;;;;;;;57.85;21.75;;;;;;;-0.49;100.00;99516.22;7392351;19;20213;-56
2022/11/22 10:25:56;;;;;;;48.25;20.77;;;;;;;-0.53;100.00;99521.00;7395109;19;20159;-57
2022/11/22 10:28:32;;;;;;;46.20;20.77;;;;;;;-0.52;100.00;99526.16;7393839;19;20214;-55
2022/11/22 10:31:06;;;;;;;47.65;20.88;;;;;;;-0.50;100.00;99524.63;7395653;19;20134;-57
2022/11/22 10:33:38;;;;;;;49.55;22.45;;;;;;;-0.45;100.00;99518.16;7391714;19;20197;-55
2022/11/22 10:36:26;;;;;;;48.75;22.10;;;;;;;-0.48;100.00;99517.97;7394855;19;20134;-57
2022/11/22 10:39:07;;;;;;;42.40;20.77;;;;;;;-0.37;100.00;99526.28;7393717;19;20191;-57
2022/11/22 10:41:46;;;;;;;48.67;21.27;;;;;;;-0.35;100.00;99526.41;7394538;19;20624;-57
2022/11/22 10:44:34;;;;;;;48.55;22.35;;;;;;;-0.37;100.00;99518.69;7391832;19;20186;-56
2022/11/22 10:47:11;;;;;;;47.50;21.33;;;;;;;-0.36;100.00;99524.66;7391944;19;20143;-56
2022/11/22 10:49:48;;;;;;;48.80;23.00;;;;;;;-0.33;100.00;99530.78;7393890;19;20127;-55
2022/11/22 10:52:25;;;;;;;54.30;21.25;;;;;;;-0.32;100.00;99534.19;7391075;19;20193;-58
2022/11/22 10:55:01;;;;;;;50.53;23.25;;;;;;;-0.33;100.00;99524.81;7391846;19;20185;-58
2022/11/22 10:57:35;;;;;;;51.65;23.27;;;;;;;-0.30;100.00;99522.50;7392068;19;20656;-56
2022/11/22 11:00:16;;;;;;;54.30;21.45;;;;;;;-0.32;100.00;99513.91;7394665;19;20130;-57
2022/11/22 11:03:03;;;;;;;49.30;22.23;;;;;;;0.00;100.00;99507.53;7391641;19;20198;-57
2022/11/22 11:05:36;;;;;;;58.58;25.00;;;;;;;-0.01;100.00;99505.75;7393780;19;20135;-56
2022/11/22 11:08:28;;;;;;;45.40;20.75;;;;;;;0.01;100.00;99514.34;7390473;19;20270;-58
2022/11/22 11:11:17;;;;;;;53.35;22.83;;;;;;;-0.04;100.00;99520.78;7393522;19;20246;-58
2022/11/22 11:13:50;;;;;;;46.33;21.80;;;;;;;0.07;100.00;99527.44;7390522;19;20857;-60
2022/11/22 11:16:22;;;;;;;58.40;23.25;;;;;;;0.21;100.00;99518.13;7393936;19;20123;-60
2022/11/22 11:18:55;;;;;;;50.60;21.95;;;;;;;0.22;100.00;99521.56;7390321;19;20223;-61
2022/11/22 11:21:25;;;;;;;48.30;22.05;;;;;;;0.23;100.00;99514.06;7394027;19;20130;-61
2022/11/22 11:23:57;;;;;;;43.97;21.42;;;;;;;0.35;100.00;99518.13;7389057;19;20202;-57
2022/11/22 11:26:29;;;;;;;48.83;21.48;;;;;;;0.28;100.00;99519.41;7397247;19;20816;-61
2022/11/22 11:29:34;;;;;;;56.00;26.50;;;;;;;0.51;100.00;99532.69;7388647;19;20222;-62
2022/11/22 11:32:09;;;;;;;51.95;23.17;;;;;;;0.47;100.00;99520.56;7388800;19;20202;-59
2022/11/22 11:34:41;;;;;;;49.83;22.00;;;;;;;0.43;100.00;99514.44;7390860;19;20162;-61
2022/11/22 11:37:20;;;;;;;56.55;24.75;;;;;;;0.35;100.00;99516.47;7390473;19;20222;-60
2022/11/22 11:39:52;;;;;;;42.20;20.65;;;;;;;0.35;100.00;99519.03;7392566;19;20154;-60
2022/11/22 11:42:27;;;;;;;40.72;20.48;;;;;;;0.41;100.00;99513.44;7390800;19;20771;-62